sensor_id;sensor_type;location;lat;lon;timestamp;P1;durP1;ratioP1;P2;durP2;ratioP2
36189;SDS011;22232;50.914;13.858;2023-03-31T00:01:36;5.07;;;1.40;;
36189;SDS011;22232;50.914;13.858;2023-03-31T00:04:10;5.70;;;1.40;;
36189;SDS011;22232;50.914;13.858;2023-03-31T00:06:40;3.17;;;1.30;;
36189;SDS011;22232;50.914;13.858;2023-03-31T00:09:09;4.30;;;1.25;;
36189;SDS011;22232;50.914;13.858;2023-03-31T00:11:39;4.72;;;1.40;;
36189;SDS011;22232;50.914;13.858;2023-03-31T00:14:07;7.85;;;1.65;;
36189;SDS011;22232;50.914;13.858;2023-03-31T00:16:35;4.47;;;1.20;;
36189;SDS011;22232;50.914;13.858;2023-03-31T00:19:05;5.45;;;1.27;;
36189;SDS011;22232;50.914;13.858;2023-03-31T00:21:36;2.20;;;1.10;;
36189;SDS011;22232;50.914;13.858;2023-03-31T00:24:06;3.78;;;1.60;;
36189;SDS011;22232;50.914;13.858;2023-03-31T00:26:36;7.47;;;1.10;;
36189;SDS011;22232;50.914;13.858;2023-03-31T00:29:05;6.72;;;1.38;;
36189;SDS011;22232;50.914;13.858;2023-03-31T00:31:34;4.30;;;1.20;;
36189;SDS011;22232;50.914;13.858;2023-03-31T00:34:02;4.75;;;1.27;;
36189;SDS011;22232;50.914;13.858;2023-03-31T00:36:30;6.68;;;1.70;;
36189;SDS011;22232;50.914;13.858;2023-03-31T00:38:59;7.20;;;1.80;;
36189;SDS011;22232;50.914;13.858;2023-03-31T00:41:35;4.70;;;1.30;;
36189;SDS011;22232;50.914;13.858;2023-03-31T00:44:07;6.78;;;1.58;;
36189;SDS011;22232;50.914;13.858;2023-03-31T00:46:50;6.18;;;1.20;;
36189;SDS011;22232;50.914;13.858;2023-03-31T00:49:26;4.53;;;1.50;;
36189;SDS011;22232;50.914;13.858;2023-03-31T00:52:07;7.72;;;1.45;;
36189;SDS011;22232;50.914;13.858;2023-03-31T00:54:40;3.17;;;1.30;;
36189;SDS011;22232;50.914;13.858;2023-03-31T00:57:11;7.35;;;1.60;;
36189;SDS011;22232;50.914;13.858;2023-03-31T00:59:42;6.55;;;1.25;;
36189;SDS011;22232;50.914;13.858;2023-03-31T01:02:14;8.87;;;2.17;;
36189;SDS011;22232;50.914;13.858;2023-03-31T01:04:44;5.80;;;1.20;;
36189;SDS011;22232;50.914;13.858;2023-03-31T01:07:19;4.40;;;0.82;;
36189;SDS011;22232;50.914;13.858;2023-03-31T01:10:01;4.28;;;1.00;;
36189;SDS011;22232;50.914;13.858;2023-03-31T01:12:31;4.97;;;0.98;;
36189;SDS011;22232;50.914;13.858;2023-03-31T01:15:00;5.57;;;1.35;;
36189;SDS011;22232;50.914;13.858;2023-03-31T01:17:30;5.85;;;1.52;;
36189;SDS011;22232;50.914;13.858;2023-03-31T01:20:04;8.90;;;1.40;;
36189;SDS011;22232;50.914;13.858;2023-03-31T01:48:06;7.70;;;1.52;;
36189;SDS011;22232;50.914;13.858;2023-03-31T01:53:22;8.85;;;2.33;;
36189;SDS011;22232;50.914;13.858;2023-03-31T01:56:12;5.50;;;1.52;;
36189;SDS011;22232;50.914;13.858;2023-03-31T02:01:33;5.93;;;1.63;;
36189;SDS011;22232;50.914;13.858;2023-03-31T02:04:07;9.15;;;1.75;;
36189;SDS011;22232;50.914;13.858;2023-03-31T02:06:44;6.47;;;1.60;;
36189;SDS011;22232;50.914;13.858;2023-03-31T02:09:19;5.95;;;1.70;;
36189;SDS011;22232;50.914;13.858;2023-03-31T02:11:51;5.78;;;1.77;;
36189;SDS011;22232;50.914;13.858;2023-03-31T02:14:23;7.18;;;1.38;;
36189;SDS011;22232;50.914;13.858;2023-03-31T02:16:56;9.77;;;1.92;;
36189;SDS011;22232;50.914;13.858;2023-03-31T02:19:26;4.60;;;1.42;;
36189;SDS011;22232;50.914;13.858;2023-03-31T02:21:58;8.70;;;1.52;;
36189;SDS011;22232;50.914;13.858;2023-03-31T02:24:29;5.88;;;1.50;;
36189;SDS011;22232;50.914;13.858;2023-03-31T02:29:33;5.70;;;1.80;;
36189;SDS011;22232;50.914;13.858;2023-03-31T02:34:52;7.78;;;1.90;;
36189;SDS011;22232;50.914;13.858;2023-03-31T02:37:21;5.90;;;1.52;;
36189;SDS011;22232;50.914;13.858;2023-03-31T02:39:50;7.80;;;1.48;;
36189;SDS011;22232;50.914;13.858;2023-03-31T02:42:20;6.53;;;1.70;;
36189;SDS011;22232;50.914;13.858;2023-03-31T02:44:51;4.15;;;1.30;;
36189;SDS011;22232;50.914;13.858;2023-03-31T02:47:19;6.40;;;1.70;;
36189;SDS011;22232;50.914;13.858;2023-03-31T02:49:49;6.25;;;1.30;;
36189;SDS011;22232;50.914;13.858;2023-03-31T03:06:39;6.13;;;1.52;;
36189;SDS011;22232;50.914;13.858;2023-03-31T03:17:09;5.80;;;1.92;;
36189;SDS011;22232;50.914;13.858;2023-03-31T03:19:42;8.18;;;1.85;;
36189;SDS011;22232;50.914;13.858;2023-03-31T03:22:10;6.85;;;1.52;;
36189;SDS011;22232;50.914;13.858;2023-03-31T03:24:37;7.38;;;1.55;;
36189;SDS011;22232;50.914;13.858;2023-03-31T03:27:05;6.70;;;1.60;;
36189;SDS011;22232;50.914;13.858;2023-03-31T03:29:33;5.68;;;1.48;;
36189;SDS011;22232;50.914;13.858;2023-03-31T03:32:00;8.13;;;1.83;;
36189;SDS011;22232;50.914;13.858;2023-03-31T03:34:28;5.85;;;1.40;;
36189;SDS011;22232;50.914;13.858;2023-03-31T03:36:56;7.32;;;1.40;;
36189;SDS011;22232;50.914;13.858;2023-03-31T03:39:24;9.70;;;1.23;;
36189;SDS011;22232;50.914;13.858;2023-03-31T03:41:52;6.72;;;1.33;;
36189;SDS011;22232;50.914;13.858;2023-03-31T03:44:20;8.77;;;1.63;;
36189;SDS011;22232;50.914;13.858;2023-03-31T03:46:47;8.70;;;1.77;;
36189;SDS011;22232;50.914;13.858;2023-03-31T03:49:15;5.28;;;1.40;;
36189;SDS011;22232;50.914;13.858;2023-03-31T03:51:43;6.25;;;1.30;;
36189;SDS011;22232;50.914;13.858;2023-03-31T03:54:10;2.42;;;1.08;;
36189;SDS011;22232;50.914;13.858;2023-03-31T03:56:38;6.38;;;1.45;;
36189;SDS011;22232;50.914;13.858;2023-03-31T03:59:06;8.13;;;1.65;;
36189;SDS011;22232;50.914;13.858;2023-03-31T04:01:34;9.57;;;1.52;;
36189;SDS011;22232;50.914;13.858;2023-03-31T04:04:02;6.45;;;1.30;;
36189;SDS011;22232;50.914;13.858;2023-03-31T04:06:30;5.32;;;1.45;;
36189;SDS011;22232;50.914;13.858;2023-03-31T04:08:58;5.57;;;1.33;;
36189;SDS011;22232;50.914;13.858;2023-03-31T04:11:25;7.55;;;1.27;;
36189;SDS011;22232;50.914;13.858;2023-03-31T04:13:54;4.50;;;1.50;;
36189;SDS011;22232;50.914;13.858;2023-03-31T04:16:21;7.07;;;1.40;;
36189;SDS011;22232;50.914;13.858;2023-03-31T04:18:52;5.63;;;1.55;;
36189;SDS011;22232;50.914;13.858;2023-03-31T04:21:22;9.82;;;1.40;;
36189;SDS011;22232;50.914;13.858;2023-03-31T04:23:51;5.22;;;1.40;;
36189;SDS011;22232;50.914;13.858;2023-03-31T04:26:28;5.40;;;1.05;;
36189;SDS011;22232;50.914;13.858;2023-03-31T04:28:57;5.60;;;1.20;;
36189;SDS011;22232;50.914;13.858;2023-03-31T04:31:28;5.18;;;1.33;;
36189;SDS011;22232;50.914;13.858;2023-03-31T04:33:57;9.07;;;1.45;;
36189;SDS011;22232;50.914;13.858;2023-03-31T04:36:28;5.22;;;1.23;;
36189;SDS011;22232;50.914;13.858;2023-03-31T04:38:57;6.72;;;1.40;;
36189;SDS011;22232;50.914;13.858;2023-03-31T04:41:25;6.20;;;1.50;;
36189;SDS011;22232;50.914;13.858;2023-03-31T04:43:53;7.55;;;1.58;;
36189;SDS011;22232;50.914;13.858;2023-03-31T04:46:21;5.97;;;1.23;;
36189;SDS011;22232;50.914;13.858;2023-03-31T04:48:49;6.32;;;1.65;;
36189;SDS011;22232;50.914;13.858;2023-03-31T04:51:16;2.88;;;1.25;;
36189;SDS011;22232;50.914;13.858;2023-03-31T04:53:43;5.07;;;1.35;;
36189;SDS011;22232;50.914;13.858;2023-03-31T04:56:11;6.88;;;1.60;;
36189;SDS011;22232;50.914;13.858;2023-03-31T04:58:39;5.57;;;1.52;;
36189;SDS011;22232;50.914;13.858;2023-03-31T05:01:07;7.40;;;1.70;;
36189;SDS011;22232;50.914;13.858;2023-03-31T05:03:34;4.68;;;1.35;;
36189;SDS011;22232;50.914;13.858;2023-03-31T05:06:02;4.03;;;1.30;;
36189;SDS011;22232;50.914;13.858;2023-03-31T05:08:30;7.43;;;2.20;;
36189;SDS011;22232;50.914;13.858;2023-03-31T05:10:58;6.35;;;1.85;;
36189;SDS011;22232;50.914;13.858;2023-03-31T05:13:25;12.27;;;1.90;;
36189;SDS011;22232;50.914;13.858;2023-03-31T05:15:53;10.50;;;4.03;;
36189;SDS011;22232;50.914;13.858;2023-03-31T05:18:20;7.78;;;2.70;;
36189;SDS011;22232;50.914;13.858;2023-03-31T05:20:48;6.63;;;1.90;;
36189;SDS011;22232;50.914;13.858;2023-03-31T05:23:15;7.47;;;2.28;;
36189;SDS011;22232;50.914;13.858;2023-03-31T05:25:43;13.82;;;6.50;;
36189;SDS011;22232;50.914;13.858;2023-03-31T05:28:10;10.80;;;4.72;;
36189;SDS011;22232;50.914;13.858;2023-03-31T05:30:38;5.57;;;2.03;;
36189;SDS011;22232;50.914;13.858;2023-03-31T05:33:05;7.63;;;1.88;;
36189;SDS011;22232;50.914;13.858;2023-03-31T05:35:33;5.50;;;1.45;;
36189;SDS011;22232;50.914;13.858;2023-03-31T05:38:00;8.20;;;2.40;;
36189;SDS011;22232;50.914;13.858;2023-03-31T05:40:28;19.20;;;7.72;;
36189;SDS011;22232;50.914;13.858;2023-03-31T05:42:55;6.72;;;2.20;;
36189;SDS011;22232;50.914;13.858;2023-03-31T05:45:23;12.82;;;5.43;;
36189;SDS011;22232;50.914;13.858;2023-03-31T05:47:50;9.73;;;2.20;;
36189;SDS011;22232;50.914;13.858;2023-03-31T05:50:18;5.25;;;2.30;;
36189;SDS011;22232;50.914;13.858;2023-03-31T05:52:46;2.85;;;1.80;;
36189;SDS011;22232;50.914;13.858;2023-03-31T05:55:13;12.48;;;2.28;;
36189;SDS011;22232;50.914;13.858;2023-03-31T05:57:41;8.60;;;1.45;;
36189;SDS011;22232;50.914;13.858;2023-03-31T06:00:08;5.63;;;2.00;;
36189;SDS011;22232;50.914;13.858;2023-03-31T06:02:37;3.42;;;1.60;;
36189;SDS011;22232;50.914;13.858;2023-03-31T06:05:05;3.75;;;1.48;;
36189;SDS011;22232;50.914;13.858;2023-03-31T06:07:32;3.42;;;1.35;;
36189;SDS011;22232;50.914;13.858;2023-03-31T06:10:00;7.10;;;1.63;;
36189;SDS011;22232;50.914;13.858;2023-03-31T06:12:28;5.43;;;2.10;;
36189;SDS011;22232;50.914;13.858;2023-03-31T06:14:55;4.97;;;1.45;;
36189;SDS011;22232;50.914;13.858;2023-03-31T06:17:23;9.95;;;4.57;;
36189;SDS011;22232;50.914;13.858;2023-03-31T06:19:50;4.93;;;1.50;;
36189;SDS011;22232;50.914;13.858;2023-03-31T06:22:18;3.30;;;1.75;;
36189;SDS011;22232;50.914;13.858;2023-03-31T06:24:45;4.88;;;1.58;;
36189;SDS011;22232;50.914;13.858;2023-03-31T06:27:13;5.18;;;1.38;;
36189;SDS011;22232;50.914;13.858;2023-03-31T06:29:40;8.70;;;1.88;;
36189;SDS011;22232;50.914;13.858;2023-03-31T06:32:08;7.18;;;1.42;;
36189;SDS011;22232;50.914;13.858;2023-03-31T06:34:36;4.85;;;1.33;;
36189;SDS011;22232;50.914;13.858;2023-03-31T06:37:03;2.72;;;1.17;;
36189;SDS011;22232;50.914;13.858;2023-03-31T06:39:31;3.95;;;1.20;;
36189;SDS011;22232;50.914;13.858;2023-03-31T06:41:58;4.63;;;1.27;;
36189;SDS011;22232;50.914;13.858;2023-03-31T06:44:27;3.38;;;1.13;;
36189;SDS011;22232;50.914;13.858;2023-03-31T06:46:54;4.57;;;1.20;;
36189;SDS011;22232;50.914;13.858;2023-03-31T06:49:22;5.00;;;1.30;;
36189;SDS011;22232;50.914;13.858;2023-03-31T06:51:50;8.82;;;1.30;;
36189;SDS011;22232;50.914;13.858;2023-03-31T06:54:18;6.63;;;1.30;;
36189;SDS011;22232;50.914;13.858;2023-03-31T06:56:46;4.68;;;1.17;;
36189;SDS011;22232;50.914;13.858;2023-03-31T06:59:14;2.60;;;1.05;;
36189;SDS011;22232;50.914;13.858;2023-03-31T07:01:41;4.68;;;1.30;;
36189;SDS011;22232;50.914;13.858;2023-03-31T07:04:09;5.00;;;1.00;;
36189;SDS011;22232;50.914;13.858;2023-03-31T07:06:37;6.30;;;1.40;;
36189;SDS011;22232;50.914;13.858;2023-03-31T07:09:04;6.75;;;1.63;;
36189;SDS011;22232;50.914;13.858;2023-03-31T07:11:32;4.10;;;1.42;;
36189;SDS011;22232;50.914;13.858;2023-03-31T07:13:59;4.03;;;1.15;;
36189;SDS011;22232;50.914;13.858;2023-03-31T07:16:27;4.20;;;1.00;;
36189;SDS011;22232;50.914;13.858;2023-03-31T07:18:54;6.88;;;1.50;;
36189;SDS011;22232;50.914;13.858;2023-03-31T07:21:25;5.22;;;1.45;;
36189;SDS011;22232;50.914;13.858;2023-03-31T07:23:53;6.20;;;1.50;;
36189;SDS011;22232;50.914;13.858;2023-03-31T07:26:20;3.47;;;1.20;;
36189;SDS011;22232;50.914;13.858;2023-03-31T07:28:48;6.72;;;1.45;;
36189;SDS011;22232;50.914;13.858;2023-03-31T07:31:16;12.68;;;1.75;;
36189;SDS011;22232;50.914;13.858;2023-03-31T07:33:43;4.57;;;1.30;;
36189;SDS011;22232;50.914;13.858;2023-03-31T07:36:11;4.43;;;1.30;;
36189;SDS011;22232;50.914;13.858;2023-03-31T07:38:43;6.63;;;1.55;;
36189;SDS011;22232;50.914;13.858;2023-03-31T07:41:16;7.40;;;1.95;;
36189;SDS011;22232;50.914;13.858;2023-03-31T07:43:45;7.15;;;2.22;;
36189;SDS011;22232;50.914;13.858;2023-03-31T07:46:14;6.15;;;3.00;;
36189;SDS011;22232;50.914;13.858;2023-03-31T07:48:45;7.85;;;3.53;;
36189;SDS011;22232;50.914;13.858;2023-03-31T07:51:14;8.00;;;3.42;;
36189;SDS011;22232;50.914;13.858;2023-03-31T07:53:43;9.10;;;3.72;;
36189;SDS011;22232;50.914;13.858;2023-03-31T07:56:12;5.50;;;2.70;;
36189;SDS011;22232;50.914;13.858;2023-03-31T07:58:39;7.60;;;3.28;;
36189;SDS011;22232;50.914;13.858;2023-03-31T08:01:07;4.65;;;2.88;;
36189;SDS011;22232;50.914;13.858;2023-03-31T08:03:35;4.68;;;2.30;;
36189;SDS011;22232;50.914;13.858;2023-03-31T08:06:03;4.07;;;1.90;;
36189;SDS011;22232;50.914;13.858;2023-03-31T08:08:31;6.13;;;2.13;;
36189;SDS011;22232;50.914;13.858;2023-03-31T08:10:59;6.28;;;1.90;;
36189;SDS011;22232;50.914;13.858;2023-03-31T08:13:26;6.03;;;1.73;;
36189;SDS011;22232;50.914;13.858;2023-03-31T08:15:54;7.68;;;1.75;;
36189;SDS011;22232;50.914;13.858;2023-03-31T08:18:21;6.53;;;1.65;;
36189;SDS011;22232;50.914;13.858;2023-03-31T08:20:49;4.32;;;1.60;;
36189;SDS011;22232;50.914;13.858;2023-03-31T08:23:17;6.57;;;1.73;;
36189;SDS011;22232;50.914;13.858;2023-03-31T08:25:44;7.88;;;1.48;;
36189;SDS011;22232;50.914;13.858;2023-03-31T08:28:12;7.40;;;1.90;;
36189;SDS011;22232;50.914;13.858;2023-03-31T08:30:43;5.50;;;1.90;;
36189;SDS011;22232;50.914;13.858;2023-03-31T08:33:11;7.03;;;1.40;;
36189;SDS011;22232;50.914;13.858;2023-03-31T08:35:38;3.17;;;1.42;;
36189;SDS011;22232;50.914;13.858;2023-03-31T08:38:06;3.78;;;1.20;;
36189;SDS011;22232;50.914;13.858;2023-03-31T08:40:33;7.32;;;1.67;;
36189;SDS011;22232;50.914;13.858;2023-03-31T08:43:15;7.72;;;1.80;;
36189;SDS011;22232;50.914;13.858;2023-03-31T08:45:53;5.90;;;1.42;;
36189;SDS011;22232;50.914;13.858;2023-03-31T08:48:29;5.25;;;1.80;;
36189;SDS011;22232;50.914;13.858;2023-03-31T08:51:08;9.70;;;2.83;;
36189;SDS011;22232;50.914;13.858;2023-03-31T08:53:42;8.38;;;3.50;;
36189;SDS011;22232;50.914;13.858;2023-03-31T08:56:16;7.80;;;4.25;;
36189;SDS011;22232;50.914;13.858;2023-03-31T08:58:49;9.30;;;4.25;;
36189;SDS011;22232;50.914;13.858;2023-03-31T09:10:10;8.57;;;3.83;;
36189;SDS011;22232;50.914;13.858;2023-03-31T09:19:44;9.60;;;4.07;;
36189;SDS011;22232;50.914;13.858;2023-03-31T09:22:21;8.50;;;3.90;;
36189;SDS011;22232;50.914;13.858;2023-03-31T09:25:37;6.35;;;3.85;;
36189;SDS011;22232;50.914;13.858;2023-03-31T09:27:53;10.00;;;4.40;;
36189;SDS011;22232;50.914;13.858;2023-03-31T09:30:28;9.80;;;4.50;;
36189;SDS011;22232;50.914;13.858;2023-03-31T09:35:40;7.38;;;4.20;;
36189;SDS011;22232;50.914;13.858;2023-03-31T09:38:11;8.50;;;4.10;;
36189;SDS011;22232;50.914;13.858;2023-03-31T09:40:40;7.60;;;4.72;;
36189;SDS011;22232;50.914;13.858;2023-03-31T09:45:50;6.30;;;4.15;;
36189;SDS011;22232;50.914;13.858;2023-03-31T09:48:35;8.48;;;3.92;;
36189;SDS011;22232;50.914;13.858;2023-03-31T09:51:06;8.00;;;4.20;;
36189;SDS011;22232;50.914;13.858;2023-03-31T09:56:12;5.93;;;4.18;;
36189;SDS011;22232;50.914;13.858;2023-03-31T09:58:40;6.97;;;4.28;;
36189;SDS011;22232;50.914;13.858;2023-03-31T10:01:10;6.45;;;4.15;;
36189;SDS011;22232;50.914;13.858;2023-03-31T10:03:45;7.38;;;4.25;;
36189;SDS011;22232;50.914;13.858;2023-03-31T10:06:16;7.32;;;3.97;;
36189;SDS011;22232;50.914;13.858;2023-03-31T10:08:58;6.72;;;4.00;;
36189;SDS011;22232;50.914;13.858;2023-03-31T10:11:27;6.55;;;4.40;;
36189;SDS011;22232;50.914;13.858;2023-03-31T10:14:12;7.18;;;4.05;;
36189;SDS011;22232;50.914;13.858;2023-03-31T10:19:17;9.05;;;4.45;;
36189;SDS011;22232;50.914;13.858;2023-03-31T10:21:55;8.20;;;4.05;;
36189;SDS011;22232;50.914;13.858;2023-03-31T10:27:42;5.85;;;3.78;;
36189;SDS011;22232;50.914;13.858;2023-03-31T10:30:17;6.50;;;3.88;;
36189;SDS011;22232;50.914;13.858;2023-03-31T10:32:50;9.07;;;4.20;;
36189;SDS011;22232;50.914;13.858;2023-03-31T10:37:54;5.10;;;3.97;;
36189;SDS011;22232;50.914;13.858;2023-03-31T10:40:28;5.95;;;3.72;;
36189;SDS011;22232;50.914;13.858;2023-03-31T10:45:47;4.50;;;3.30;;
36189;SDS011;22232;50.914;13.858;2023-03-31T10:48:25;5.70;;;2.92;;
36189;SDS011;22232;50.914;13.858;2023-03-31T10:50:54;6.88;;;2.97;;
36189;SDS011;22232;50.914;13.858;2023-03-31T10:53:26;3.53;;;2.53;;
36189;SDS011;22232;50.914;13.858;2023-03-31T11:04:46;3.97;;;2.03;;
36189;SDS011;22232;50.914;13.858;2023-03-31T11:18:50;4.35;;;2.00;;
36189;SDS011;22232;50.914;13.858;2023-03-31T11:24:24;2.38;;;1.92;;
36189;SDS011;22232;50.914;13.858;2023-03-31T11:29:39;3.40;;;2.38;;
36189;SDS011;22232;50.914;13.858;2023-03-31T11:38:12;3.35;;;2.63;;
36189;SDS011;22232;50.914;13.858;2023-03-31T11:41:16;3.65;;;2.70;;
36189;SDS011;22232;50.914;13.858;2023-03-31T11:43:49;6.55;;;3.58;;
36189;SDS011;22232;50.914;13.858;2023-03-31T11:46:21;6.55;;;2.85;;
36189;SDS011;22232;50.914;13.858;2023-03-31T11:48:53;6.53;;;2.90;;
36189;SDS011;22232;50.914;13.858;2023-03-31T11:51:27;5.68;;;2.40;;
36189;SDS011;22232;50.914;13.858;2023-03-31T11:53:57;2.63;;;2.05;;
36189;SDS011;22232;50.914;13.858;2023-03-31T11:56:35;2.72;;;1.92;;
36189;SDS011;22232;50.914;13.858;2023-03-31T11:59:05;1.80;;;1.65;;
36189;SDS011;22232;50.914;13.858;2023-03-31T12:01:51;3.08;;;2.42;;
36189;SDS011;22232;50.914;13.858;2023-03-31T12:09:46;5.13;;;2.80;;
36189;SDS011;22232;50.914;13.858;2023-03-31T12:12:29;4.45;;;3.35;;
36189;SDS011;22232;50.914;13.858;2023-03-31T12:15:17;3.80;;;3.10;;
36189;SDS011;22232;50.914;13.858;2023-03-31T12:17:59;4.22;;;3.28;;
36189;SDS011;22232;50.914;13.858;2023-03-31T12:20:36;6.05;;;3.85;;
36189;SDS011;22232;50.914;13.858;2023-03-31T12:23:12;6.72;;;4.00;;
36189;SDS011;22232;50.914;13.858;2023-03-31T12:25:47;7.32;;;4.25;;
36189;SDS011;22232;50.914;13.858;2023-03-31T12:28:24;8.27;;;4.97;;
36189;SDS011;22232;50.914;13.858;2023-03-31T12:30:53;5.50;;;3.83;;
36189;SDS011;22232;50.914;13.858;2023-03-31T12:33:36;4.45;;;3.47;;
36189;SDS011;22232;50.914;13.858;2023-03-31T12:42:01;5.95;;;3.90;;
36189;SDS011;22232;50.914;13.858;2023-03-31T12:44:34;3.67;;;2.70;;
36189;SDS011;22232;50.914;13.858;2023-03-31T12:53:02;10.93;;;5.50;;
36189;SDS011;22232;50.914;13.858;2023-03-31T13:03:55;5.70;;;3.45;;
36189;SDS011;22232;50.914;13.858;2023-03-31T13:06:56;4.72;;;3.00;;
36189;SDS011;22232;50.914;13.858;2023-03-31T13:12:06;3.25;;;2.75;;
36189;SDS011;22232;50.914;13.858;2023-03-31T13:14:36;5.88;;;3.60;;
36189;SDS011;22232;50.914;13.858;2023-03-31T13:20:14;5.85;;;3.40;;
36189;SDS011;22232;50.914;13.858;2023-03-31T13:22:58;2.42;;;1.77;;
36189;SDS011;22232;50.914;13.858;2023-03-31T13:25:36;3.80;;;1.67;;
36189;SDS011;22232;50.914;13.858;2023-03-31T13:28:09;3.28;;;2.78;;
36189;SDS011;22232;50.914;13.858;2023-03-31T13:35:45;4.53;;;1.60;;
36189;SDS011;22232;50.914;13.858;2023-03-31T13:52:11;1.77;;;1.15;;
36189;SDS011;22232;50.914;13.858;2023-03-31T13:57:26;2.00;;;0.90;;
36189;SDS011;22232;50.914;13.858;2023-03-31T14:03:11;1.17;;;0.77;;
36189;SDS011;22232;50.914;13.858;2023-03-31T14:06:40;2.20;;;1.10;;
36189;SDS011;22232;50.914;13.858;2023-03-31T14:08:54;2.22;;;1.23;;
36189;SDS011;22232;50.914;13.858;2023-03-31T14:13:59;1.00;;;0.70;;
36189;SDS011;22232;50.914;13.858;2023-03-31T14:16:34;2.10;;;1.10;;
36189;SDS011;22232;50.914;13.858;2023-03-31T14:25:15;1.17;;;0.73;;
36189;SDS011;22232;50.914;13.858;2023-03-31T14:31:02;2.50;;;1.00;;
36189;SDS011;22232;50.914;13.858;2023-03-31T14:36:28;2.88;;;1.30;;
36189;SDS011;22232;50.914;13.858;2023-03-31T14:39:20;2.03;;;1.10;;
36189;SDS011;22232;50.914;13.858;2023-03-31T14:41:52;2.17;;;0.98;;
36189;SDS011;22232;50.914;13.858;2023-03-31T14:44:21;1.73;;;1.08;;
36189;SDS011;22232;50.914;13.858;2023-03-31T14:46:49;3.05;;;1.25;;
36189;SDS011;22232;50.914;13.858;2023-03-31T14:49:24;1.75;;;1.10;;
36189;SDS011;22232;50.914;13.858;2023-03-31T14:51:54;1.77;;;1.02;;
36189;SDS011;22232;50.914;13.858;2023-03-31T14:54:26;1.83;;;1.20;;
36189;SDS011;22232;50.914;13.858;2023-03-31T14:56:55;4.28;;;1.25;;
36189;SDS011;22232;50.914;13.858;2023-03-31T14:59:26;2.60;;;1.13;;
36189;SDS011;22232;50.914;13.858;2023-03-31T15:01:57;2.35;;;1.10;;
36189;SDS011;22232;50.914;13.858;2023-03-31T15:04:27;3.80;;;1.10;;
36189;SDS011;22232;50.914;13.858;2023-03-31T15:07:08;3.60;;;1.30;;
36189;SDS011;22232;50.914;13.858;2023-03-31T15:09:36;4.85;;;1.45;;
36189;SDS011;22232;50.914;13.858;2023-03-31T15:12:10;2.20;;;1.33;;
36189;SDS011;22232;50.914;13.858;2023-03-31T15:14:44;3.28;;;1.45;;
36189;SDS011;22232;50.914;13.858;2023-03-31T15:17:27;12.17;;;1.37;;
36189;SDS011;22232;50.914;13.858;2023-03-31T15:22:27;6.43;;;1.75;;
36189;SDS011;22232;50.914;13.858;2023-03-31T15:24:55;1.75;;;1.20;;
36189;SDS011;22232;50.914;13.858;2023-03-31T15:30:06;4.72;;;1.52;;
36189;SDS011;22232;50.914;13.858;2023-03-31T15:32:40;4.30;;;1.60;;
36189;SDS011;22232;50.914;13.858;2023-03-31T15:37:54;4.00;;;2.00;;
36189;SDS011;22232;50.914;13.858;2023-03-31T15:45:55;4.20;;;1.52;;
36189;SDS011;22232;50.914;13.858;2023-03-31T15:51:06;3.53;;;1.38;;
36189;SDS011;22232;50.914;13.858;2023-03-31T15:53:44;3.33;;;1.10;;
36189;SDS011;22232;50.914;13.858;2023-03-31T15:56:29;3.97;;;1.05;;
36189;SDS011;22232;50.914;13.858;2023-03-31T15:59:03;4.28;;;1.92;;
36189;SDS011;22232;50.914;13.858;2023-03-31T16:01:32;5.43;;;1.50;;
36189;SDS011;22232;50.914;13.858;2023-03-31T16:04:06;3.93;;;1.80;;
36189;SDS011;22232;50.914;13.858;2023-03-31T16:06:52;3.38;;;1.63;;
36189;SDS011;22232;50.914;13.858;2023-03-31T16:12:22;4.72;;;1.60;;
36189;SDS011;22232;50.914;13.858;2023-03-31T16:14:58;5.88;;;2.47;;
36189;SDS011;22232;50.914;13.858;2023-03-31T16:17:27;5.68;;;1.90;;
36189;SDS011;22232;50.914;13.858;2023-03-31T16:20:00;2.72;;;1.75;;
36189;SDS011;22232;50.914;13.858;2023-03-31T16:22:38;3.13;;;1.33;;
36189;SDS011;22232;50.914;13.858;2023-03-31T16:25:19;1.95;;;1.02;;
36189;SDS011;22232;50.914;13.858;2023-03-31T16:27:52;3.10;;;1.50;;
36189;SDS011;22232;50.914;13.858;2023-03-31T16:30:35;2.67;;;1.20;;
36189;SDS011;22232;50.914;13.858;2023-03-31T16:33:08;4.07;;;1.10;;
36189;SDS011;22232;50.914;13.858;2023-03-31T16:35:47;3.40;;;1.00;;
36189;SDS011;22232;50.914;13.858;2023-03-31T16:38:18;4.32;;;1.08;;
36189;SDS011;22232;50.914;13.858;2023-03-31T16:40:50;0.50;;;0.50;;
36189;SDS011;22232;50.914;13.858;2023-03-31T16:43:20;3.70;;;1.30;;
36189;SDS011;22232;50.914;13.858;2023-03-31T16:45:50;3.08;;;0.90;;
36189;SDS011;22232;50.914;13.858;2023-03-31T16:48:20;2.35;;;0.90;;
36189;SDS011;22232;50.914;13.858;2023-03-31T16:50:53;1.92;;;0.88;;
36189;SDS011;22232;50.914;13.858;2023-03-31T16:53:24;3.55;;;1.38;;
36189;SDS011;22232;50.914;13.858;2023-03-31T16:55:54;1.10;;;0.70;;
36189;SDS011;22232;50.914;13.858;2023-03-31T16:58:22;3.63;;;0.90;;
36189;SDS011;22232;50.914;13.858;2023-03-31T17:00:50;2.88;;;0.77;;
36189;SDS011;22232;50.914;13.858;2023-03-31T17:03:19;3.47;;;1.10;;
36189;SDS011;22232;50.914;13.858;2023-03-31T17:05:48;1.73;;;0.80;;
36189;SDS011;22232;50.914;13.858;2023-03-31T17:08:20;2.78;;;0.98;;
36189;SDS011;22232;50.914;13.858;2023-03-31T17:10:50;3.45;;;1.77;;
36189;SDS011;22232;50.914;13.858;2023-03-31T17:13:37;2.58;;;0.73;;
36189;SDS011;22232;50.914;13.858;2023-03-31T17:16:06;4.90;;;1.02;;
36189;SDS011;22232;50.914;13.858;2023-03-31T17:18:52;4.47;;;1.02;;
36189;SDS011;22232;50.914;13.858;2023-03-31T17:21:20;2.88;;;0.80;;
36189;SDS011;22232;50.914;13.858;2023-03-31T17:23:49;3.50;;;1.02;;
36189;SDS011;22232;50.914;13.858;2023-03-31T17:26:16;4.60;;;1.00;;
36189;SDS011;22232;50.914;13.858;2023-03-31T17:28:44;2.67;;;0.90;;
36189;SDS011;22232;50.914;13.858;2023-03-31T17:31:16;3.30;;;1.30;;
36189;SDS011;22232;50.914;13.858;2023-03-31T17:33:45;2.72;;;1.05;;
36189;SDS011;22232;50.914;13.858;2023-03-31T17:36:14;5.57;;;1.88;;
36189;SDS011;22232;50.914;13.858;2023-03-31T17:38:42;3.90;;;1.30;;
36189;SDS011;22232;50.914;13.858;2023-03-31T17:41:11;3.15;;;1.88;;
36189;SDS011;22232;50.914;13.858;2023-03-31T17:43:42;3.63;;;1.50;;
36189;SDS011;22232;50.914;13.858;2023-03-31T17:46:11;3.13;;;1.30;;
36189;SDS011;22232;50.914;13.858;2023-03-31T17:48:40;2.78;;;1.17;;
36189;SDS011;22232;50.914;13.858;2023-03-31T17:51:10;4.65;;;1.75;;
36189;SDS011;22232;50.914;13.858;2023-03-31T17:53:41;4.72;;;1.42;;
36189;SDS011;22232;50.914;13.858;2023-03-31T17:56:11;4.15;;;1.73;;
36189;SDS011;22232;50.914;13.858;2023-03-31T17:58:40;6.53;;;2.53;;
36189;SDS011;22232;50.914;13.858;2023-03-31T18:01:09;2.90;;;1.42;;
36189;SDS011;22232;50.914;13.858;2023-03-31T18:03:38;6.50;;;1.75;;
36189;SDS011;22232;50.914;13.858;2023-03-31T18:06:06;3.60;;;1.70;;
36189;SDS011;22232;50.914;13.858;2023-03-31T18:08:37;4.50;;;2.30;;
36189;SDS011;22232;50.914;13.858;2023-03-31T18:11:06;2.30;;;1.10;;
36189;SDS011;22232;50.914;13.858;2023-03-31T18:13:34;5.20;;;2.03;;
36189;SDS011;22232;50.914;13.858;2023-03-31T18:16:03;6.38;;;2.13;;
36189;SDS011;22232;50.914;13.858;2023-03-31T18:18:32;3.92;;;1.90;;
36189;SDS011;22232;50.914;13.858;2023-03-31T18:21:02;2.70;;;1.40;;
36189;SDS011;22232;50.914;13.858;2023-03-31T18:23:31;3.22;;;1.38;;
36189;SDS011;22232;50.914;13.858;2023-03-31T18:26:00;9.02;;;1.80;;
36189;SDS011;22232;50.914;13.858;2023-03-31T18:28:28;4.95;;;1.30;;
36189;SDS011;22232;50.914;13.858;2023-03-31T18:30:55;3.13;;;1.40;;
36189;SDS011;22232;50.914;13.858;2023-03-31T18:33:23;3.90;;;1.23;;